sensor_id;sensor_type;location;lat;lon;timestamp;temperature;humidity
13336;DHT22;6737;51.480;11.962;2023-12-07T00:01:50;2.70;99.90
13336;DHT22;6737;51.480;11.962;2023-12-07T00:04:15;2.80;99.90
13336;DHT22;6737;51.480;11.962;2023-12-07T00:06:41;2.80;99.90
13336;DHT22;6737;51.480;11.962;2023-12-07T00:09:07;2.70;99.90
13336;DHT22;6737;51.480;11.962;2023-12-07T00:11:32;2.70;99.90
13336;DHT22;6737;51.480;11.962;2023-12-07T00:13:58;2.80;99.90
13336;DHT22;6737;51.480;11.962;2023-12-07T00:16:24;2.80;99.90
13336;DHT22;6737;51.480;11.962;2023-12-07T00:18:50;2.80;99.90
13336;DHT22;6737;51.480;11.962;2023-12-07T00:21:15;2.80;99.90
13336;DHT22;6737;51.480;11.962;2023-12-07T00:23:41;2.80;99.90
13336;DHT22;6737;51.480;11.962;2023-12-07T00:26:07;2.80;99.90
13336;DHT22;6737;51.480;11.962;2023-12-07T00:28:33;2.80;99.90
13336;DHT22;6737;51.480;11.962;2023-12-07T00:30:58;2.80;99.90
13336;DHT22;6737;51.480;11.962;2023-12-07T00:33:24;2.80;99.90
13336;DHT22;6737;51.480;11.962;2023-12-07T00:35:50;2.80;99.90
13336;DHT22;6737;51.480;11.962;2023-12-07T00:38:16;2.80;99.90
13336;DHT22;6737;51.480;11.962;2023-12-07T00:40:41;2.80;99.90
13336;DHT22;6737;51.480;11.962;2023-12-07T00:45:50;2.80;99.90
13336;DHT22;6737;51.480;11.962;2023-12-07T00:48:16;2.80;99.90
13336;DHT22;6737;51.480;11.962;2023-12-07T00:50:42;2.80;99.90
13336;DHT22;6737;51.480;11.962;2023-12-07T00:53:07;2.80;99.90
13336;DHT22;6737;51.480;11.962;2023-12-07T00:55:34;2.80;99.90
13336;DHT22;6737;51.480;11.962;2023-12-07T00:58:00;2.80;99.90
13336;DHT22;6737;51.480;11.962;2023-12-07T01:00:27;2.80;99.90
13336;DHT22;6737;51.480;11.962;2023-12-07T01:02:53;2.80;99.90
13336;DHT22;6737;51.480;11.962;2023-12-07T01:05:18;2.80;99.90
13336;DHT22;6737;51.480;11.962;2023-12-07T01:07:44;2.80;99.90
13336;DHT22;6737;51.480;11.962;2023-12-07T01:10:10;2.80;99.90
13336;DHT22;6737;51.480;11.962;2023-12-07T01:12:36;2.80;99.90
13336;DHT22;6737;51.480;11.962;2023-12-07T01:15:01;2.80;99.90
13336;DHT22;6737;51.480;11.962;2023-12-07T01:17:27;2.80;99.90
13336;DHT22;6737;51.480;11.962;2023-12-07T01:19:53;2.80;99.90
13336;DHT22;6737;51.480;11.962;2023-12-07T01:22:19;2.80;99.90
13336;DHT22;6737;51.480;11.962;2023-12-07T01:24:46;2.80;99.90
13336;DHT22;6737;51.480;11.962;2023-12-07T01:27:12;2.80;99.90
13336;DHT22;6737;51.480;11.962;2023-12-07T01:29:38;2.80;99.90
13336;DHT22;6737;51.480;11.962;2023-12-07T01:32:04;2.80;99.90
13336;DHT22;6737;51.480;11.962;2023-12-07T01:34:31;2.80;99.90
13336;DHT22;6737;51.480;11.962;2023-12-07T01:36:58;2.80;99.90
13336;DHT22;6737;51.480;11.962;2023-12-07T01:39:24;2.80;99.90
13336;DHT22;6737;51.480;11.962;2023-12-07T01:41:51;2.80;99.90
13336;DHT22;6737;51.480;11.962;2023-12-07T01:44:17;2.80;99.90
13336;DHT22;6737;51.480;11.962;2023-12-07T01:46:43;2.90;99.90
13336;DHT22;6737;51.480;11.962;2023-12-07T01:49:09;2.90;99.90
13336;DHT22;6737;51.480;11.962;2023-12-07T01:51:35;2.90;99.90
13336;DHT22;6737;51.480;11.962;2023-12-07T01:54:01;2.90;99.90
13336;DHT22;6737;51.480;11.962;2023-12-07T01:56:28;2.90;99.90
13336;DHT22;6737;51.480;11.962;2023-12-07T01:58:54;2.80;99.90
13336;DHT22;6737;51.480;11.962;2023-12-07T02:01:21;2.90;99.90
13336;DHT22;6737;51.480;11.962;2023-12-07T02:03:47;2.80;99.90
13336;DHT22;6737;51.480;11.962;2023-12-07T02:06:12;2.90;99.90
13336;DHT22;6737;51.480;11.962;2023-12-07T02:08:39;2.90;99.90
13336;DHT22;6737;51.480;11.962;2023-12-07T02:11:09;2.90;99.90
13336;DHT22;6737;51.480;11.962;2023-12-07T02:13:39;2.90;99.90
13336;DHT22;6737;51.480;11.962;2023-12-07T02:16:13;2.90;99.90
13336;DHT22;6737;51.480;11.962;2023-12-07T02:19:03;2.90;99.90
13336;DHT22;6737;51.480;11.962;2023-12-07T02:21:40;2.90;99.90
13336;DHT22;6737;51.480;11.962;2023-12-07T02:24:07;2.90;99.90
13336;DHT22;6737;51.480;11.962;2023-12-07T02:26:36;2.90;99.90
13336;DHT22;6737;51.480;11.962;2023-12-07T02:29:03;2.90;99.90
13336;DHT22;6737;51.480;11.962;2023-12-07T02:31:29;2.90;99.90
13336;DHT22;6737;51.480;11.962;2023-12-07T02:33:55;2.90;99.90
13336;DHT22;6737;51.480;11.962;2023-12-07T02:36:24;3.00;99.90
13336;DHT22;6737;51.480;11.962;2023-12-07T02:38:56;3.00;99.90
13336;DHT22;6737;51.480;11.962;2023-12-07T02:41:22;3.00;99.90
13336;DHT22;6737;51.480;11.962;2023-12-07T02:43:49;3.00;99.90
13336;DHT22;6737;51.480;11.962;2023-12-07T02:46:15;3.00;99.90
13336;DHT22;6737;51.480;11.962;2023-12-07T02:48:41;3.00;99.90
13336;DHT22;6737;51.480;11.962;2023-12-07T02:51:07;3.10;99.90
13336;DHT22;6737;51.480;11.962;2023-12-07T02:53:32;3.10;99.90
13336;DHT22;6737;51.480;11.962;2023-12-07T02:55:58;3.10;99.90
13336;DHT22;6737;51.480;11.962;2023-12-07T02:58:24;3.10;99.90
13336;DHT22;6737;51.480;11.962;2023-12-07T03:00:50;3.10;99.90
13336;DHT22;6737;51.480;11.962;2023-12-07T03:03:15;3.10;99.90
13336;DHT22;6737;51.480;11.962;2023-12-07T03:05:41;3.10;99.90
13336;DHT22;6737;51.480;11.962;2023-12-07T03:08:07;3.10;99.90
13336;DHT22;6737;51.480;11.962;2023-12-07T03:10:33;3.10;99.90
13336;DHT22;6737;51.480;11.962;2023-12-07T03:12:58;3.10;99.90
13336;DHT22;6737;51.480;11.962;2023-12-07T03:15:24;3.20;99.90
13336;DHT22;6737;51.480;11.962;2023-12-07T03:17:50;3.10;99.90
13336;DHT22;6737;51.480;11.962;2023-12-07T03:20:17;3.20;99.90
13336;DHT22;6737;51.480;11.962;2023-12-07T03:22:42;3.20;99.90
13336;DHT22;6737;51.480;11.962;2023-12-07T03:25:08;3.20;99.90
13336;DHT22;6737;51.480;11.962;2023-12-07T03:27:34;3.20;99.90
13336;DHT22;6737;51.480;11.962;2023-12-07T03:30:00;3.20;99.90
13336;DHT22;6737;51.480;11.962;2023-12-07T03:32:26;3.20;99.90
13336;DHT22;6737;51.480;11.962;2023-12-07T03:34:52;3.10;99.90
13336;DHT22;6737;51.480;11.962;2023-12-07T03:37:17;3.20;99.90
13336;DHT22;6737;51.480;11.962;2023-12-07T03:39:43;3.20;99.90
13336;DHT22;6737;51.480;11.962;2023-12-07T03:42:09;3.20;99.90
13336;DHT22;6737;51.480;11.962;2023-12-07T03:44:34;3.20;99.90
13336;DHT22;6737;51.480;11.962;2023-12-07T03:47:00;3.20;99.90
13336;DHT22;6737;51.480;11.962;2023-12-07T03:49:26;3.20;99.90
13336;DHT22;6737;51.480;11.962;2023-12-07T03:51:52;3.20;99.90
13336;DHT22;6737;51.480;11.962;2023-12-07T03:54:18;3.20;99.90
13336;DHT22;6737;51.480;11.962;2023-12-07T03:56:44;3.20;99.90
13336;DHT22;6737;51.480;11.962;2023-12-07T03:59:10;3.20;99.90
13336;DHT22;6737;51.480;11.962;2023-12-07T04:01:36;3.20;99.90
13336;DHT22;6737;51.480;11.962;2023-12-07T04:04:01;3.20;99.90
13336;DHT22;6737;51.480;11.962;2023-12-07T04:06:27;3.20;99.90
13336;DHT22;6737;51.480;11.962;2023-12-07T04:08:53;3.20;99.90
13336;DHT22;6737;51.480;11.962;2023-12-07T04:11:19;3.20;99.90
13336;DHT22;6737;51.480;11.962;2023-12-07T04:13:45;3.20;99.90
13336;DHT22;6737;51.480;11.962;2023-12-07T04:16:12;3.30;99.90
13336;DHT22;6737;51.480;11.962;2023-12-07T04:18:37;3.30;99.90
13336;DHT22;6737;51.480;11.962;2023-12-07T04:21:04;3.20;99.90
13336;DHT22;6737;51.480;11.962;2023-12-07T04:23:31;3.30;99.90
13336;DHT22;6737;51.480;11.962;2023-12-07T04:25:57;3.30;99.90
13336;DHT22;6737;51.480;11.962;2023-12-07T04:28:24;3.20;99.90
13336;DHT22;6737;51.480;11.962;2023-12-07T04:30:50;3.20;99.90
13336;DHT22;6737;51.480;11.962;2023-12-07T04:33:15;3.20;99.90
13336;DHT22;6737;51.480;11.962;2023-12-07T04:35:41;3.30;99.90
13336;DHT22;6737;51.480;11.962;2023-12-07T04:38:07;3.20;99.90
13336;DHT22;6737;51.480;11.962;2023-12-07T04:40:33;3.20;99.90
13336;DHT22;6737;51.480;11.962;2023-12-07T04:42:59;3.20;99.90
13336;DHT22;6737;51.480;11.962;2023-12-07T04:45:24;3.20;99.90
13336;DHT22;6737;51.480;11.962;2023-12-07T04:47:50;3.20;99.90
13336;DHT22;6737;51.480;11.962;2023-12-07T04:50:16;3.20;99.90
13336;DHT22;6737;51.480;11.962;2023-12-07T04:52:42;3.20;99.90
13336;DHT22;6737;51.480;11.962;2023-12-07T04:55:08;3.20;99.90
13336;DHT22;6737;51.480;11.962;2023-12-07T04:57:35;3.20;99.90
13336;DHT22;6737;51.480;11.962;2023-12-07T05:00:01;3.20;99.90
13336;DHT22;6737;51.480;11.962;2023-12-07T05:02:31;3.20;99.90
13336;DHT22;6737;51.480;11.962;2023-12-07T05:04:57;3.20;99.90
13336;DHT22;6737;51.480;11.962;2023-12-07T05:07:23;3.20;99.90
13336;DHT22;6737;51.480;11.962;2023-12-07T05:09:49;3.20;99.90
13336;DHT22;6737;51.480;11.962;2023-12-07T05:12:17;3.20;99.90
13336;DHT22;6737;51.480;11.962;2023-12-07T05:14:43;3.20;99.90
13336;DHT22;6737;51.480;11.962;2023-12-07T05:17:08;3.20;99.90
13336;DHT22;6737;51.480;11.962;2023-12-07T05:19:34;3.20;99.90
13336;DHT22;6737;51.480;11.962;2023-12-07T05:22:00;3.20;99.90
13336;DHT22;6737;51.480;11.962;2023-12-07T05:24:27;3.20;99.90
13336;DHT22;6737;51.480;11.962;2023-12-07T05:26:54;3.20;99.90
13336;DHT22;6737;51.480;11.962;2023-12-07T05:29:19;3.20;99.90
13336;DHT22;6737;51.480;11.962;2023-12-07T05:31:48;3.20;99.90
13336;DHT22;6737;51.480;11.962;2023-12-07T05:34:16;3.20;99.90
13336;DHT22;6737;51.480;11.962;2023-12-07T05:36:41;3.20;99.90
13336;DHT22;6737;51.480;11.962;2023-12-07T05:39:07;3.20;99.90
13336;DHT22;6737;51.480;11.962;2023-12-07T05:41:33;3.20;99.90
13336;DHT22;6737;51.480;11.962;2023-12-07T05:43:59;3.20;99.90
13336;DHT22;6737;51.480;11.962;2023-12-07T05:46:25;3.20;99.90
13336;DHT22;6737;51.480;11.962;2023-12-07T05:48:51;3.20;99.90
13336;DHT22;6737;51.480;11.962;2023-12-07T05:51:17;3.20;99.90
13336;DHT22;6737;51.480;11.962;2023-12-07T05:53:43;3.20;99.90
13336;DHT22;6737;51.480;11.962;2023-12-07T05:56:10;3.20;99.90
13336;DHT22;6737;51.480;11.962;2023-12-07T05:58:37;3.30;99.90
13336;DHT22;6737;51.480;11.962;2023-12-07T06:01:03;3.20;99.90
13336;DHT22;6737;51.480;11.962;2023-12-07T06:03:29;3.20;99.90
13336;DHT22;6737;51.480;11.962;2023-12-07T06:05:55;3.20;99.90
13336;DHT22;6737;51.480;11.962;2023-12-07T06:08:22;3.20;99.90
13336;DHT22;6737;51.480;11.962;2023-12-07T06:10:48;3.20;99.90
13336;DHT22;6737;51.480;11.962;2023-12-07T06:13:14;3.20;99.90
13336;DHT22;6737;51.480;11.962;2023-12-07T06:15:40;3.20;99.90
13336;DHT22;6737;51.480;11.962;2023-12-07T06:18:06;3.20;99.90
13336;DHT22;6737;51.480;11.962;2023-12-07T06:20:32;3.20;99.90
13336;DHT22;6737;51.480;11.962;2023-12-07T06:22:59;3.20;99.90
13336;DHT22;6737;51.480;11.962;2023-12-07T06:25:25;3.10;99.90
13336;DHT22;6737;51.480;11.962;2023-12-07T06:27:51;3.20;99.90
13336;DHT22;6737;51.480;11.962;2023-12-07T06:30:16;3.20;99.90
13336;DHT22;6737;51.480;11.962;2023-12-07T06:32:43;3.20;99.90
13336;DHT22;6737;51.480;11.962;2023-12-07T06:35:12;3.20;99.90
13336;DHT22;6737;51.480;11.962;2023-12-07T06:37:38;3.20;99.90
13336;DHT22;6737;51.480;11.962;2023-12-07T06:40:06;3.20;99.90
13336;DHT22;6737;51.480;11.962;2023-12-07T06:42:35;3.20;99.90
13336;DHT22;6737;51.480;11.962;2023-12-07T06:45:01;3.20;99.90
13336;DHT22;6737;51.480;11.962;2023-12-07T06:47:28;3.20;99.90
13336;DHT22;6737;51.480;11.962;2023-12-07T06:49:54;3.20;99.90
13336;DHT22;6737;51.480;11.962;2023-12-07T06:52:21;3.20;99.90
13336;DHT22;6737;51.480;11.962;2023-12-07T06:54:47;3.10;99.90
13336;DHT22;6737;51.480;11.962;2023-12-07T06:57:13;3.10;99.90
13336;DHT22;6737;51.480;11.962;2023-12-07T06:59:39;3.10;99.90
13336;DHT22;6737;51.480;11.962;2023-12-07T07:02:06;3.20;99.90
13336;DHT22;6737;51.480;11.962;2023-12-07T07:04:32;3.20;99.90
13336;DHT22;6737;51.480;11.962;2023-12-07T07:06:58;3.20;99.90
13336;DHT22;6737;51.480;11.962;2023-12-07T07:09:24;3.20;99.90
13336;DHT22;6737;51.480;11.962;2023-12-07T07:11:51;3.10;99.90
13336;DHT22;6737;51.480;11.962;2023-12-07T07:14:17;3.20;99.90
13336;DHT22;6737;51.480;11.962;2023-12-07T07:16:43;3.20;99.90
13336;DHT22;6737;51.480;11.962;2023-12-07T07:19:10;3.10;99.90
13336;DHT22;6737;51.480;11.962;2023-12-07T07:21:37;3.10;99.90
13336;DHT22;6737;51.480;11.962;2023-12-07T07:24:03;3.20;99.90
13336;DHT22;6737;51.480;11.962;2023-12-07T07:26:28;3.20;99.90
13336;DHT22;6737;51.480;11.962;2023-12-07T07:28:55;3.20;99.90
13336;DHT22;6737;51.480;11.962;2023-12-07T07:31:21;3.10;99.90
13336;DHT22;6737;51.480;11.962;2023-12-07T07:33:47;3.20;99.90
13336;DHT22;6737;51.480;11.962;2023-12-07T07:36:13;3.20;99.90
13336;DHT22;6737;51.480;11.962;2023-12-07T07:38:41;3.20;99.90
13336;DHT22;6737;51.480;11.962;2023-12-07T07:41:07;3.20;99.90
13336;DHT22;6737;51.480;11.962;2023-12-07T07:43:33;3.20;99.90
13336;DHT22;6737;51.480;11.962;2023-12-07T07:46:00;3.20;99.90
13336;DHT22;6737;51.480;11.962;2023-12-07T07:48:26;3.20;99.90
13336;DHT22;6737;51.480;11.962;2023-12-07T07:50:52;3.20;99.90
13336;DHT22;6737;51.480;11.962;2023-12-07T07:53:18;3.20;99.90
13336;DHT22;6737;51.480;11.962;2023-12-07T07:55:44;3.20;99.90
13336;DHT22;6737;51.480;11.962;2023-12-07T07:58:09;3.20;99.90
13336;DHT22;6737;51.480;11.962;2023-12-07T08:00:35;3.20;99.90
13336;DHT22;6737;51.480;11.962;2023-12-07T08:03:01;3.20;99.90
13336;DHT22;6737;51.480;11.962;2023-12-07T08:05:27;3.20;99.90
13336;DHT22;6737;51.480;11.962;2023-12-07T08:07:53;3.10;99.90
13336;DHT22;6737;51.480;11.962;2023-12-07T08:10:19;3.20;99.90
13336;DHT22;6737;51.480;11.962;2023-12-07T08:12:46;3.10;99.90
13336;DHT22;6737;51.480;11.962;2023-12-07T08:15:11;3.20;99.90
13336;DHT22;6737;51.480;11.962;2023-12-07T08:17:41;3.20;99.90
13336;DHT22;6737;51.480;11.962;2023-12-07T08:20:08;3.20;99.90
13336;DHT22;6737;51.480;11.962;2023-12-07T08:22:41;3.20;99.90
13336;DHT22;6737;51.480;11.962;2023-12-07T08:25:07;3.20;99.90
13336;DHT22;6737;51.480;11.962;2023-12-07T08:27:37;3.30;99.90
13336;DHT22;6737;51.480;11.962;2023-12-07T08:30:04;3.30;99.90
13336;DHT22;6737;51.480;11.962;2023-12-07T08:32:30;3.30;99.90
13336;DHT22;6737;51.480;11.962;2023-12-07T08:34:56;3.30;99.90
13336;DHT22;6737;51.480;11.962;2023-12-07T08:37:22;3.30;99.90
13336;DHT22;6737;51.480;11.962;2023-12-07T08:39:48;3.30;99.90
13336;DHT22;6737;51.480;11.962;2023-12-07T08:42:14;3.40;99.90
13336;DHT22;6737;51.480;11.962;2023-12-07T08:44:40;3.40;99.90
13336;DHT22;6737;51.480;11.962;2023-12-07T08:47:06;3.40;99.90
13336;DHT22;6737;51.480;11.962;2023-12-07T08:49:32;3.40;99.90
13336;DHT22;6737;51.480;11.962;2023-12-07T08:51:58;3.40;99.90
13336;DHT22;6737;51.480;11.962;2023-12-07T08:54:24;3.40;99.90
13336;DHT22;6737;51.480;11.962;2023-12-07T08:56:50;3.40;99.90
13336;DHT22;6737;51.480;11.962;2023-12-07T08:59:16;3.50;99.90
13336;DHT22;6737;51.480;11.962;2023-12-07T09:01:42;3.50;99.90
13336;DHT22;6737;51.480;11.962;2023-12-07T09:04:08;3.50;99.90
13336;DHT22;6737;51.480;11.962;2023-12-07T09:06:36;3.60;99.90
13336;DHT22;6737;51.480;11.962;2023-12-07T09:09:03;3.60;99.90
13336;DHT22;6737;51.480;11.962;2023-12-07T09:11:30;3.50;99.90
13336;DHT22;6737;51.480;11.962;2023-12-07T09:13:57;3.60;99.90
13336;DHT22;6737;51.480;11.962;2023-12-07T09:16:24;3.50;99.90
13336;DHT22;6737;51.480;11.962;2023-12-07T09:18:52;3.50;99.90
13336;DHT22;6737;51.480;11.962;2023-12-07T09:21:17;3.50;99.90
13336;DHT22;6737;51.480;11.962;2023-12-07T09:23:43;3.60;99.90
13336;DHT22;6737;51.480;11.962;2023-12-07T09:26:10;3.60;99.90
13336;DHT22;6737;51.480;11.962;2023-12-07T09:28:36;3.60;99.90
13336;DHT22;6737;51.480;11.962;2023-12-07T09:31:02;3.60;99.90
13336;DHT22;6737;51.480;11.962;2023-12-07T09:33:28;3.60;99.90
13336;DHT22;6737;51.480;11.962;2023-12-07T09:35:54;3.60;99.90
13336;DHT22;6737;51.480;11.962;2023-12-07T09:38:20;3.60;99.90
13336;DHT22;6737;51.480;11.962;2023-12-07T09:40:46;3.70;99.90
13336;DHT22;6737;51.480;11.962;2023-12-07T09:43:13;3.60;99.90
13336;DHT22;6737;51.480;11.962;2023-12-07T09:45:39;3.70;99.90
13336;DHT22;6737;51.480;11.962;2023-12-07T09:48:05;3.70;99.90
13336;DHT22;6737;51.480;11.962;2023-12-07T09:50:33;3.70;99.90
13336;DHT22;6737;51.480;11.962;2023-12-07T09:52:59;3.70;99.90
13336;DHT22;6737;51.480;11.962;2023-12-07T09:55:25;3.70;99.90
13336;DHT22;6737;51.480;11.962;2023-12-07T09:57:51;3.70;99.90
13336;DHT22;6737;51.480;11.962;2023-12-07T10:00:20;3.70;99.90
13336;DHT22;6737;51.480;11.962;2023-12-07T10:02:46;3.80;99.90
13336;DHT22;6737;51.480;11.962;2023-12-07T10:05:13;3.70;99.90
13336;DHT22;6737;51.480;11.962;2023-12-07T10:07:43;3.80;99.90
13336;DHT22;6737;51.480;11.962;2023-12-07T10:10:10;3.80;99.90
13336;DHT22;6737;51.480;11.962;2023-12-07T10:12:51;3.80;99.90
13336;DHT22;6737;51.480;11.962;2023-12-07T10:15:17;3.80;99.90
13336;DHT22;6737;51.480;11.962;2023-12-07T10:17:58;3.80;99.90
13336;DHT22;6737;51.480;11.962;2023-12-07T10:20:27;3.80;99.90
13336;DHT22;6737;51.480;11.962;2023-12-07T10:23:07;3.80;99.90
13336;DHT22;6737;51.480;11.962;2023-12-07T10:25:41;3.90;99.90
13336;DHT22;6737;51.480;11.962;2023-12-07T10:28:08;3.90;99.90
13336;DHT22;6737;51.480;11.962;2023-12-07T10:30:37;3.90;99.90
13336;DHT22;6737;51.480;11.962;2023-12-07T10:33:05;3.90;99.90
13336;DHT22;6737;51.480;11.962;2023-12-07T10:35:37;3.90;99.90
13336;DHT22;6737;51.480;11.962;2023-12-07T10:38:04;3.90;99.90
13336;DHT22;6737;51.480;11.962;2023-12-07T10:40:30;4.00;99.90
13336;DHT22;6737;51.480;11.962;2023-12-07T10:42:58;4.00;99.90
13336;DHT22;6737;51.480;11.962;2023-12-07T10:45:29;4.10;99.90
13336;DHT22;6737;51.480;11.962;2023-12-07T10:48:03;4.10;99.90
13336;DHT22;6737;51.480;11.962;2023-12-07T10:50:36;4.10;99.90
13336;DHT22;6737;51.480;11.962;2023-12-07T10:53:10;4.10;99.90
13336;DHT22;6737;51.480;11.962;2023-12-07T10:55:50;4.10;99.90
13336;DHT22;6737;51.480;11.962;2023-12-07T10:58:19;4.20;99.90
13336;DHT22;6737;51.480;11.962;2023-12-07T11:00:45;4.20;99.90
13336;DHT22;6737;51.480;11.962;2023-12-07T11:03:16;4.20;99.90
13336;DHT22;6737;51.480;11.962;2023-12-07T11:05:49;4.30;99.90
13336;DHT22;6737;51.480;11.962;2023-12-07T11:08:28;4.30;99.90
13336;DHT22;6737;51.480;11.962;2023-12-07T11:13:48;4.30;99.90
13336;DHT22;6737;51.480;11.962;2023-12-07T11:16:14;4.40;99.90
13336;DHT22;6737;51.480;11.962;2023-12-07T11:18:40;4.40;99.90
13336;DHT22;6737;51.480;11.962;2023-12-07T11:21:06;4.40;99.90
13336;DHT22;6737;51.480;11.962;2023-12-07T11:23:32;4.40;99.90
13336;DHT22;6737;51.480;11.962;2023-12-07T11:25:58;4.40;99.90
13336;DHT22;6737;51.480;11.962;2023-12-07T11:28:38;4.40;99.90
13336;DHT22;6737;51.480;11.962;2023-12-07T11:31:08;4.50;99.90
13336;DHT22;6737;51.480;11.962;2023-12-07T11:33:38;4.50;99.90
13336;DHT22;6737;51.480;11.962;2023-12-07T11:38:33;4.50;99.90
13336;DHT22;6737;51.480;11.962;2023-12-07T11:40:59;4.50;99.90
13336;DHT22;6737;51.480;11.962;2023-12-07T11:46:01;4.60;99.90
13336;DHT22;6737;51.480;11.962;2023-12-07T11:48:27;4.70;99.90
13336;DHT22;6737;51.480;11.962;2023-12-07T11:51:01;4.70;99.90
13336;DHT22;6737;51.480;11.962;2023-12-07T11:53:32;4.70;99.90
13336;DHT22;6737;51.480;11.962;2023-12-07T11:55:59;4.70;99.90
13336;DHT22;6737;51.480;11.962;2023-12-07T11:58:28;4.80;99.90
13336;DHT22;6737;51.480;11.962;2023-12-07T12:00:55;4.80;99.90
13336;DHT22;6737;51.480;11.962;2023-12-07T12:03:23;4.80;99.90
13336;DHT22;6737;51.480;11.962;2023-12-07T12:05:49;4.70;99.90
13336;DHT22;6737;51.480;11.962;2023-12-07T12:08:16;4.70;99.90
13336;DHT22;6737;51.480;11.962;2023-12-07T12:10:43;4.70;99.90
13336;DHT22;6737;51.480;11.962;2023-12-07T12:13:10;4.70;99.90
13336;DHT22;6737;51.480;11.962;2023-12-07T12:15:38;4.80;99.90
13336;DHT22;6737;51.480;11.962;2023-12-07T12:18:04;4.70;99.90
13336;DHT22;6737;51.480;11.962;2023-12-07T12:20:30;4.70;99.90
13336;DHT22;6737;51.480;11.962;2023-12-07T12:22:58;4.80;99.90
13336;DHT22;6737;51.480;11.962;2023-12-07T12:25:27;4.70;99.90
13336;DHT22;6737;51.480;11.962;2023-12-07T12:27:58;4.70;99.90
13336;DHT22;6737;51.480;11.962;2023-12-07T12:30:25;4.70;99.90
13336;DHT22;6737;51.480;11.962;2023-12-07T12:32:51;4.70;99.90
13336;DHT22;6737;51.480;11.962;2023-12-07T12:35:18;4.70;99.90
13336;DHT22;6737;51.480;11.962;2023-12-07T12:37:45;4.70;99.90
13336;DHT22;6737;51.480;11.962;2023-12-07T12:40:11;4.70;99.90
13336;DHT22;6737;51.480;11.962;2023-12-07T12:42:39;4.80;99.90
13336;DHT22;6737;51.480;11.962;2023-12-07T12:45:07;4.80;99.90
13336;DHT22;6737;51.480;11.962;2023-12-07T12:47:34;4.80;99.90
13336;DHT22;6737;51.480;11.962;2023-12-07T12:50:03;4.80;99.90
13336;DHT22;6737;51.480;11.962;2023-12-07T12:52:32;4.80;99.90
13336;DHT22;6737;51.480;11.962;2023-12-07T12:54:58;4.80;99.90
13336;DHT22;6737;51.480;11.962;2023-12-07T12:57:24;4.90;99.90
13336;DHT22;6737;51.480;11.962;2023-12-07T12:59:51;4.80;99.90
13336;DHT22;6737;51.480;11.962;2023-12-07T13:02:17;4.90;99.90
13336;DHT22;6737;51.480;11.962;2023-12-07T13:04:44;4.90;99.90
13336;DHT22;6737;51.480;11.962;2023-12-07T13:07:12;4.90;99.90
13336;DHT22;6737;51.480;11.962;2023-12-07T13:09:39;4.80;99.90
13336;DHT22;6737;51.480;11.962;2023-12-07T13:12:05;4.80;99.90
13336;DHT22;6737;51.480;11.962;2023-12-07T13:14:32;4.90;99.90
13336;DHT22;6737;51.480;11.962;2023-12-07T13:17:06;4.80;99.90
13336;DHT22;6737;51.480;11.962;2023-12-07T13:19:35;4.80;99.90
13336;DHT22;6737;51.480;11.962;2023-12-07T13:22:02;4.80;99.90
13336;DHT22;6737;51.480;11.962;2023-12-07T13:24:29;4.80;99.90
13336;DHT22;6737;51.480;11.962;2023-12-07T13:26:56;4.80;99.90
13336;DHT22;6737;51.480;11.962;2023-12-07T13:29:23;4.80;99.90
13336;DHT22;6737;51.480;11.962;2023-12-07T13:31:49;4.80;99.90
13336;DHT22;6737;51.480;11.962;2023-12-07T13:34:15;4.80;99.90
13336;DHT22;6737;51.480;11.962;2023-12-07T13:36:42;4.80;99.90
13336;DHT22;6737;51.480;11.962;2023-12-07T13:39:07;4.80;99.90
13336;DHT22;6737;51.480;11.962;2023-12-07T13:41:35;4.90;99.90
13336;DHT22;6737;51.480;11.962;2023-12-07T13:44:01;4.90;99.90
13336;DHT22;6737;51.480;11.962;2023-12-07T13:46:27;4.80;99.90
13336;DHT22;6737;51.480;11.962;2023-12-07T13:48:53;4.90;99.90
13336;DHT22;6737;51.480;11.962;2023-12-07T13:51:19;4.90;99.90
13336;DHT22;6737;51.480;11.962;2023-12-07T13:53:46;4.80;99.90
13336;DHT22;6737;51.480;11.962;2023-12-07T13:56:12;4.80;99.90
13336;DHT22;6737;51.480;11.962;2023-12-07T13:58:38;4.80;99.90
13336;DHT22;6737;51.480;11.962;2023-12-07T14:01:05;4.80;99.90
13336;DHT22;6737;51.480;11.962;2023-12-07T14:03:31;4.90;99.90
13336;DHT22;6737;51.480;11.962;2023-12-07T14:05:57;4.80;99.90
13336;DHT22;6737;51.480;11.962;2023-12-07T14:08:23;4.90;99.90
13336;DHT22;6737;51.480;11.962;2023-12-07T14:10:49;4.90;99.90
13336;DHT22;6737;51.480;11.962;2023-12-07T14:13:14;4.90;99.90
13336;DHT22;6737;51.480;11.962;2023-12-07T14:15:43;4.90;99.90
13336;DHT22;6737;51.480;11.962;2023-12-07T14:18:09;4.80;99.90
13336;DHT22;6737;51.480;11.962;2023-12-07T14:20:35;4.80;99.90
13336;DHT22;6737;51.480;11.962;2023-12-07T14:23:01;4.80;99.90
13336;DHT22;6737;51.480;11.962;2023-12-07T14:25:30;4.70;99.90
13336;DHT22;6737;51.480;11.962;2023-12-07T14:27:57;4.70;99.90
13336;DHT22;6737;51.480;11.962;2023-12-07T14:30:23;4.70;99.90
13336;DHT22;6737;51.480;11.962;2023-12-07T14:32:49;4.70;99.90
13336;DHT22;6737;51.480;11.962;2023-12-07T14:35:18;4.70;99.90
13336;DHT22;6737;51.480;11.962;2023-12-07T14:37:44;4.70;99.90
13336;DHT22;6737;51.480;11.962;2023-12-07T14:40:11;4.70;99.90
13336;DHT22;6737;51.480;11.962;2023-12-07T14:42:38;4.60;99.90
13336;DHT22;6737;51.480;11.962;2023-12-07T14:45:05;4.60;99.90
13336;DHT22;6737;51.480;11.962;2023-12-07T14:47:31;4.60;99.90
13336;DHT22;6737;51.480;11.962;2023-12-07T14:49:56;4.50;99.90
13336;DHT22;6737;51.480;11.962;2023-12-07T14:52:22;4.40;99.90
13336;DHT22;6737;51.480;11.962;2023-12-07T14:54:50;4.40;99.90
13336;DHT22;6737;51.480;11.962;2023-12-07T14:57:17;4.30;99.90
13336;DHT22;6737;51.480;11.962;2023-12-07T14:59:43;4.30;99.90
13336;DHT22;6737;51.480;11.962;2023-12-07T15:02:09;4.20;99.90
13336;DHT22;6737;51.480;11.962;2023-12-07T15:04:38;4.20;99.90
13336;DHT22;6737;51.480;11.962;2023-12-07T15:07:04;4.10;99.90
13336;DHT22;6737;51.480;11.962;2023-12-07T15:09:31;4.10;99.90
13336;DHT22;6737;51.480;11.962;2023-12-07T15:11:57;4.10;99.90
13336;DHT22;6737;51.480;11.962;2023-12-07T15:14:23;4.10;99.90
13336;DHT22;6737;51.480;11.962;2023-12-07T15:16:49;4.10;99.90
13336;DHT22;6737;51.480;11.962;2023-12-07T15:19:17;4.10;99.90
13336;DHT22;6737;51.480;11.962;2023-12-07T15:21:43;4.00;99.90
13336;DHT22;6737;51.480;11.962;2023-12-07T15:24:09;4.00;99.90
13336;DHT22;6737;51.480;11.962;2023-12-07T15:26:35;3.90;99.90
13336;DHT22;6737;51.480;11.962;2023-12-07T15:29:01;3.90;99.90
13336;DHT22;6737;51.480;11.962;2023-12-07T15:31:26;3.80;99.90
13336;DHT22;6737;51.480;11.962;2023-12-07T15:33:53;3.80;99.90
13336;DHT22;6737;51.480;11.962;2023-12-07T15:36:19;3.70;99.90
13336;DHT22;6737;51.480;11.962;2023-12-07T15:38:45;3.70;99.90
13336;DHT22;6737;51.480;11.962;2023-12-07T15:41:11;3.70;99.90
13336;DHT22;6737;51.480;11.962;2023-12-07T15:43:36;3.60;99.90
13336;DHT22;6737;51.480;11.962;2023-12-07T15:46:02;3.60;99.90
13336;DHT22;6737;51.480;11.962;2023-12-07T15:48:29;3.60;99.90
13336;DHT22;6737;51.480;11.962;2023-12-07T15:50:55;3.50;99.90
13336;DHT22;6737;51.480;11.962;2023-12-07T15:53:21;3.50;99.90